sensor_id;sensor_type;location;lat;lon;timestamp;P1;durP1;ratioP1;P2;durP2;ratioP2
41263;SDS011;26998;48.714;9.414;2023-07-22T00:00:30;4.57;;;4.15;;
41263;SDS011;26998;48.714;9.414;2023-07-22T00:02:57;7.97;;;4.05;;
41263;SDS011;26998;48.714;9.414;2023-07-22T00:05:23;6.00;;;3.80;;
41263;SDS011;26998;48.714;9.414;2023-07-22T00:07:50;5.15;;;3.70;;
41263;SDS011;26998;48.714;9.414;2023-07-22T00:10:16;4.70;;;4.15;;
41263;SDS011;26998;48.714;9.414;2023-07-22T00:12:43;5.18;;;3.80;;
41263;SDS011;26998;48.714;9.414;2023-07-22T00:15:10;5.38;;;4.05;;
41263;SDS011;26998;48.714;9.414;2023-07-22T00:17:36;4.00;;;3.60;;
41263;SDS011;26998;48.714;9.414;2023-07-22T00:20:03;6.78;;;4.10;;
41263;SDS011;26998;48.714;9.414;2023-07-22T00:22:30;5.22;;;3.70;;
41263;SDS011;26998;48.714;9.414;2023-07-22T00:24:56;4.40;;;4.00;;
41263;SDS011;26998;48.714;9.414;2023-07-22T00:27:23;5.10;;;3.50;;
41263;SDS011;26998;48.714;9.414;2023-07-22T00:29:50;7.97;;;4.18;;
41263;SDS011;26998;48.714;9.414;2023-07-22T00:32:16;5.30;;;4.00;;
41263;SDS011;26998;48.714;9.414;2023-07-22T00:34:43;6.30;;;3.97;;
41263;SDS011;26998;48.714;9.414;2023-07-22T00:37:09;6.13;;;4.20;;
41263;SDS011;26998;48.714;9.414;2023-07-22T00:39:36;5.43;;;3.88;;
41263;SDS011;26998;48.714;9.414;2023-07-22T00:42:02;4.75;;;3.63;;
41263;SDS011;26998;48.714;9.414;2023-07-22T00:44:29;7.22;;;3.90;;
41263;SDS011;26998;48.714;9.414;2023-07-22T00:46:56;5.43;;;3.38;;
41263;SDS011;26998;48.714;9.414;2023-07-22T00:49:24;5.50;;;3.45;;
41263;SDS011;26998;48.714;9.414;2023-07-22T00:51:52;4.70;;;3.70;;
41263;SDS011;26998;48.714;9.414;2023-07-22T00:54:18;3.97;;;3.67;;
41263;SDS011;26998;48.714;9.414;2023-07-22T00:56:45;7.05;;;3.80;;
41263;SDS011;26998;48.714;9.414;2023-07-22T00:59:13;7.25;;;3.88;;
41263;SDS011;26998;48.714;9.414;2023-07-22T01:01:41;7.22;;;4.00;;
41263;SDS011;26998;48.714;9.414;2023-07-22T01:04:07;9.10;;;4.70;;
41263;SDS011;26998;48.714;9.414;2023-07-22T01:06:35;5.03;;;3.70;;
41263;SDS011;26998;48.714;9.414;2023-07-22T01:09:02;6.97;;;3.85;;
41263;SDS011;26998;48.714;9.414;2023-07-22T01:11:31;7.85;;;4.38;;
41263;SDS011;26998;48.714;9.414;2023-07-22T01:13:58;4.72;;;3.65;;
41263;SDS011;26998;48.714;9.414;2023-07-22T01:16:25;4.43;;;3.80;;
41263;SDS011;26998;48.714;9.414;2023-07-22T01:18:53;9.32;;;4.10;;
41263;SDS011;26998;48.714;9.414;2023-07-22T01:21:23;6.03;;;4.18;;
41263;SDS011;26998;48.714;9.414;2023-07-22T01:23:51;6.72;;;3.33;;
41263;SDS011;26998;48.714;9.414;2023-07-22T01:26:18;4.30;;;3.85;;
41263;SDS011;26998;48.714;9.414;2023-07-22T01:28:45;7.93;;;4.03;;
41263;SDS011;26998;48.714;9.414;2023-07-22T01:31:12;6.22;;;4.30;;
41263;SDS011;26998;48.714;9.414;2023-07-22T01:33:38;5.63;;;4.13;;
41263;SDS011;26998;48.714;9.414;2023-07-22T01:36:05;5.50;;;3.88;;
41263;SDS011;26998;48.714;9.414;2023-07-22T01:38:31;7.35;;;4.38;;
41263;SDS011;26998;48.714;9.414;2023-07-22T01:41:05;7.03;;;4.30;;
41263;SDS011;26998;48.714;9.414;2023-07-22T01:43:31;3.92;;;3.53;;
41263;SDS011;26998;48.714;9.414;2023-07-22T01:45:58;5.07;;;4.10;;
41263;SDS011;26998;48.714;9.414;2023-07-22T01:48:25;6.60;;;4.20;;
41263;SDS011;26998;48.714;9.414;2023-07-22T01:50:51;6.40;;;3.85;;
41263;SDS011;26998;48.714;9.414;2023-07-22T01:53:18;7.25;;;3.95;;
41263;SDS011;26998;48.714;9.414;2023-07-22T01:55:44;5.72;;;4.68;;
41263;SDS011;26998;48.714;9.414;2023-07-22T01:58:11;6.22;;;4.13;;
41263;SDS011;26998;48.714;9.414;2023-07-22T02:00:37;5.45;;;4.20;;
41263;SDS011;26998;48.714;9.414;2023-07-22T02:03:04;5.07;;;4.25;;
41263;SDS011;26998;48.714;9.414;2023-07-22T02:05:31;5.30;;;4.47;;
41263;SDS011;26998;48.714;9.414;2023-07-22T02:07:57;5.13;;;4.00;;
41263;SDS011;26998;48.714;9.414;2023-07-22T02:10:24;8.30;;;4.20;;
41263;SDS011;26998;48.714;9.414;2023-07-22T02:12:50;6.72;;;4.55;;
41263;SDS011;26998;48.714;9.414;2023-07-22T02:15:17;8.32;;;4.30;;
41263;SDS011;26998;48.714;9.414;2023-07-22T02:17:44;6.18;;;4.18;;
41263;SDS011;26998;48.714;9.414;2023-07-22T02:20:10;6.97;;;3.75;;
41263;SDS011;26998;48.714;9.414;2023-07-22T02:22:37;5.80;;;4.40;;
41263;SDS011;26998;48.714;9.414;2023-07-22T02:25:04;7.10;;;4.38;;
41263;SDS011;26998;48.714;9.414;2023-07-22T02:27:30;6.07;;;4.25;;
41263;SDS011;26998;48.714;9.414;2023-07-22T02:29:57;5.45;;;4.07;;
41263;SDS011;26998;48.714;9.414;2023-07-22T02:32:24;4.97;;;4.05;;
41263;SDS011;26998;48.714;9.414;2023-07-22T02:34:50;5.55;;;3.67;;
41263;SDS011;26998;48.714;9.414;2023-07-22T02:37:17;7.40;;;4.20;;
41263;SDS011;26998;48.714;9.414;2023-07-22T02:39:44;9.10;;;4.88;;
41263;SDS011;26998;48.714;9.414;2023-07-22T02:42:10;5.43;;;4.25;;
41263;SDS011;26998;48.714;9.414;2023-07-22T02:44:37;6.07;;;4.70;;
41263;SDS011;26998;48.714;9.414;2023-07-22T02:47:03;5.32;;;4.43;;
41263;SDS011;26998;48.714;9.414;2023-07-22T02:49:30;6.60;;;4.68;;
41263;SDS011;26998;48.714;9.414;2023-07-22T02:51:56;6.43;;;4.72;;
41263;SDS011;26998;48.714;9.414;2023-07-22T02:54:23;6.13;;;4.70;;
41263;SDS011;26998;48.714;9.414;2023-07-22T02:56:49;5.28;;;4.68;;
41263;SDS011;26998;48.714;9.414;2023-07-22T02:59:16;9.25;;;4.85;;
41263;SDS011;26998;48.714;9.414;2023-07-22T03:01:43;8.85;;;4.13;;
41263;SDS011;26998;48.714;9.414;2023-07-22T03:04:09;8.57;;;4.35;;
41263;SDS011;26998;48.714;9.414;2023-07-22T03:06:36;5.53;;;4.45;;
41263;SDS011;26998;48.714;9.414;2023-07-22T03:09:02;8.25;;;4.32;;
41263;SDS011;26998;48.714;9.414;2023-07-22T03:11:29;9.20;;;4.63;;
41263;SDS011;26998;48.714;9.414;2023-07-22T03:13:55;7.90;;;4.32;;
41263;SDS011;26998;48.714;9.414;2023-07-22T03:16:22;4.95;;;4.10;;
41263;SDS011;26998;48.714;9.414;2023-07-22T03:18:49;5.95;;;4.20;;
41263;SDS011;26998;48.714;9.414;2023-07-22T03:21:16;5.18;;;3.60;;
41263;SDS011;26998;48.714;9.414;2023-07-22T03:23:43;6.18;;;4.03;;
41263;SDS011;26998;48.714;9.414;2023-07-22T03:26:09;6.47;;;4.22;;
41263;SDS011;26998;48.714;9.414;2023-07-22T03:28:36;6.03;;;3.85;;
41263;SDS011;26998;48.714;9.414;2023-07-22T03:31:03;4.57;;;3.53;;
41263;SDS011;26998;48.714;9.414;2023-07-22T03:33:29;4.25;;;3.78;;
41263;SDS011;26998;48.714;9.414;2023-07-22T03:35:55;4.78;;;3.75;;
41263;SDS011;26998;48.714;9.414;2023-07-22T03:38:22;4.78;;;3.50;;
41263;SDS011;26998;48.714;9.414;2023-07-22T03:40:49;5.25;;;3.92;;
41263;SDS011;26998;48.714;9.414;2023-07-22T03:43:15;4.97;;;3.88;;
41263;SDS011;26998;48.714;9.414;2023-07-22T03:45:41;6.38;;;3.50;;
41263;SDS011;26998;48.714;9.414;2023-07-22T03:48:08;5.15;;;4.03;;
41263;SDS011;26998;48.714;9.414;2023-07-22T03:50:35;5.32;;;4.20;;
41263;SDS011;26998;48.714;9.414;2023-07-22T03:53:01;5.97;;;3.83;;
41263;SDS011;26998;48.714;9.414;2023-07-22T03:55:28;6.25;;;3.53;;
41263;SDS011;26998;48.714;9.414;2023-07-22T03:57:55;8.65;;;4.28;;
41263;SDS011;26998;48.714;9.414;2023-07-22T04:00:21;3.85;;;3.47;;
41263;SDS011;26998;48.714;9.414;2023-07-22T04:02:48;4.90;;;3.25;;
41263;SDS011;26998;48.714;9.414;2023-07-22T04:05:15;5.25;;;3.60;;
41263;SDS011;26998;48.714;9.414;2023-07-22T04:07:41;5.65;;;3.72;;
41263;SDS011;26998;48.714;9.414;2023-07-22T04:10:08;5.35;;;3.72;;
41263;SDS011;26998;48.714;9.414;2023-07-22T04:12:35;4.60;;;3.17;;
41263;SDS011;26998;48.714;9.414;2023-07-22T04:15:01;4.53;;;3.78;;
41263;SDS011;26998;48.714;9.414;2023-07-22T04:17:28;9.02;;;3.78;;
41263;SDS011;26998;48.714;9.414;2023-07-22T04:19:55;6.35;;;4.03;;
41263;SDS011;26998;48.714;9.414;2023-07-22T04:22:22;6.15;;;4.20;;
41263;SDS011;26998;48.714;9.414;2023-07-22T04:24:48;5.13;;;3.90;;
41263;SDS011;26998;48.714;9.414;2023-07-22T04:27:15;4.88;;;4.22;;
41263;SDS011;26998;48.714;9.414;2023-07-22T04:29:42;6.93;;;4.50;;
41263;SDS011;26998;48.714;9.414;2023-07-22T04:32:09;7.65;;;3.78;;
41263;SDS011;26998;48.714;9.414;2023-07-22T04:34:35;4.13;;;3.65;;
41263;SDS011;26998;48.714;9.414;2023-07-22T04:37:02;4.88;;;4.38;;
41263;SDS011;26998;48.714;9.414;2023-07-22T04:39:29;6.25;;;4.00;;
41263;SDS011;26998;48.714;9.414;2023-07-22T04:41:55;5.10;;;3.97;;
41263;SDS011;26998;48.714;9.414;2023-07-22T04:44:22;9.40;;;4.50;;
41263;SDS011;26998;48.714;9.414;2023-07-22T04:46:48;4.22;;;3.80;;
41263;SDS011;26998;48.714;9.414;2023-07-22T04:49:15;6.75;;;3.88;;
41263;SDS011;26998;48.714;9.414;2023-07-22T04:51:41;5.53;;;3.33;;
41263;SDS011;26998;48.714;9.414;2023-07-22T04:54:08;5.53;;;3.92;;
41263;SDS011;26998;48.714;9.414;2023-07-22T04:56:34;3.65;;;3.08;;
41263;SDS011;26998;48.714;9.414;2023-07-22T04:59:01;7.55;;;4.00;;
41263;SDS011;26998;48.714;9.414;2023-07-22T05:01:27;4.85;;;3.17;;
41263;SDS011;26998;48.714;9.414;2023-07-22T05:03:54;4.78;;;3.15;;
41263;SDS011;26998;48.714;9.414;2023-07-22T05:06:21;5.50;;;2.92;;
41263;SDS011;26998;48.714;9.414;2023-07-22T05:08:47;4.15;;;3.17;;
41263;SDS011;26998;48.714;9.414;2023-07-22T05:11:14;5.03;;;2.95;;
41263;SDS011;26998;48.714;9.414;2023-07-22T05:13:40;6.00;;;2.90;;
41263;SDS011;26998;48.714;9.414;2023-07-22T05:16:07;4.43;;;2.45;;
41263;SDS011;26998;48.714;9.414;2023-07-22T05:18:33;4.60;;;3.42;;
41263;SDS011;26998;48.714;9.414;2023-07-22T05:21:00;7.57;;;2.70;;
41263;SDS011;26998;48.714;9.414;2023-07-22T05:23:26;5.22;;;3.20;;
41263;SDS011;26998;48.714;9.414;2023-07-22T05:25:53;3.47;;;3.08;;
41263;SDS011;26998;48.714;9.414;2023-07-22T05:28:19;3.50;;;3.20;;
41263;SDS011;26998;48.714;9.414;2023-07-22T05:30:49;3.95;;;3.55;;
41263;SDS011;26998;48.714;9.414;2023-07-22T05:33:16;4.53;;;3.25;;
41263;SDS011;26998;48.714;9.414;2023-07-22T05:35:43;5.93;;;3.08;;
41263;SDS011;26998;48.714;9.414;2023-07-22T05:38:13;7.13;;;3.30;;
41263;SDS011;26998;48.714;9.414;2023-07-22T05:40:41;3.53;;;2.67;;
41263;SDS011;26998;48.714;9.414;2023-07-22T05:43:08;3.45;;;2.83;;
41263;SDS011;26998;48.714;9.414;2023-07-22T05:45:34;4.22;;;3.15;;
41263;SDS011;26998;48.714;9.414;2023-07-22T05:48:01;3.58;;;3.28;;
41263;SDS011;26998;48.714;9.414;2023-07-22T05:50:27;6.47;;;3.78;;
41263;SDS011;26998;48.714;9.414;2023-07-22T05:52:54;3.40;;;3.10;;
41263;SDS011;26998;48.714;9.414;2023-07-22T05:55:20;4.50;;;3.33;;
41263;SDS011;26998;48.714;9.414;2023-07-22T05:57:47;3.20;;;2.92;;
41263;SDS011;26998;48.714;9.414;2023-07-22T06:00:14;3.85;;;2.95;;
41263;SDS011;26998;48.714;9.414;2023-07-22T06:02:41;8.15;;;3.45;;
41263;SDS011;26998;48.714;9.414;2023-07-22T06:05:08;3.83;;;3.20;;
41263;SDS011;26998;48.714;9.414;2023-07-22T06:07:35;3.45;;;2.83;;
41263;SDS011;26998;48.714;9.414;2023-07-22T06:10:01;3.85;;;3.00;;
41263;SDS011;26998;48.714;9.414;2023-07-22T06:12:28;4.43;;;3.38;;
41263;SDS011;26998;48.714;9.414;2023-07-22T06:14:55;3.80;;;3.40;;
41263;SDS011;26998;48.714;9.414;2023-07-22T06:17:22;5.07;;;3.10;;
41263;SDS011;26998;48.714;9.414;2023-07-22T06:19:48;2.85;;;2.65;;
41263;SDS011;26998;48.714;9.414;2023-07-22T06:22:15;5.10;;;3.30;;
41263;SDS011;26998;48.714;9.414;2023-07-22T06:24:41;6.47;;;3.28;;
41263;SDS011;26998;48.714;9.414;2023-07-22T06:27:08;8.10;;;3.70;;
41263;SDS011;26998;48.714;9.414;2023-07-22T06:29:35;3.28;;;2.67;;
41263;SDS011;26998;48.714;9.414;2023-07-22T06:32:01;5.60;;;3.20;;
41263;SDS011;26998;48.714;9.414;2023-07-22T06:34:28;3.63;;;2.72;;
41263;SDS011;26998;48.714;9.414;2023-07-22T06:36:55;3.13;;;2.83;;
41263;SDS011;26998;48.714;9.414;2023-07-22T06:39:21;4.78;;;3.00;;
41263;SDS011;26998;48.714;9.414;2023-07-22T06:41:48;5.03;;;3.45;;
41263;SDS011;26998;48.714;9.414;2023-07-22T06:44:14;5.82;;;3.10;;
41263;SDS011;26998;48.714;9.414;2023-07-22T06:46:41;4.20;;;3.08;;
41263;SDS011;26998;48.714;9.414;2023-07-22T06:49:07;3.75;;;3.45;;
41263;SDS011;26998;48.714;9.414;2023-07-22T06:51:35;4.97;;;3.20;;
41263;SDS011;26998;48.714;9.414;2023-07-22T06:54:02;4.22;;;3.00;;
41263;SDS011;26998;48.714;9.414;2023-07-22T06:56:29;4.68;;;2.67;;
41263;SDS011;26998;48.714;9.414;2023-07-22T06:58:56;3.92;;;3.20;;
41263;SDS011;26998;48.714;9.414;2023-07-22T07:01:22;3.30;;;3.00;;
41263;SDS011;26998;48.714;9.414;2023-07-22T07:03:49;3.20;;;2.90;;
41263;SDS011;26998;48.714;9.414;2023-07-22T07:06:15;4.18;;;2.88;;
41263;SDS011;26998;48.714;9.414;2023-07-22T07:08:42;5.22;;;3.30;;
41263;SDS011;26998;48.714;9.414;2023-07-22T07:11:08;3.80;;;2.95;;
41263;SDS011;26998;48.714;9.414;2023-07-22T07:13:35;4.05;;;3.15;;
41263;SDS011;26998;48.714;9.414;2023-07-22T07:16:21;5.82;;;2.97;;
41263;SDS011;26998;48.714;9.414;2023-07-22T07:18:49;3.67;;;3.25;;
41263;SDS011;26998;48.714;9.414;2023-07-22T07:21:17;3.70;;;3.38;;
41263;SDS011;26998;48.714;9.414;2023-07-22T07:23:44;4.78;;;2.70;;
41263;SDS011;26998;48.714;9.414;2023-07-22T07:26:11;3.80;;;2.80;;
41263;SDS011;26998;48.714;9.414;2023-07-22T07:28:38;3.17;;;2.88;;
41263;SDS011;26998;48.714;9.414;2023-07-22T07:31:04;5.20;;;2.78;;
41263;SDS011;26998;48.714;9.414;2023-07-22T07:33:31;4.22;;;3.25;;
41263;SDS011;26998;48.714;9.414;2023-07-22T07:35:58;6.20;;;2.95;;
41263;SDS011;26998;48.714;9.414;2023-07-22T07:38:25;6.75;;;3.13;;
41263;SDS011;26998;48.714;9.414;2023-07-22T07:40:56;5.25;;;2.60;;
41263;SDS011;26998;48.714;9.414;2023-07-22T07:43:24;4.43;;;3.05;;
41263;SDS011;26998;48.714;9.414;2023-07-22T07:45:51;5.38;;;3.63;;
41263;SDS011;26998;48.714;9.414;2023-07-22T07:51:07;3.50;;;2.90;;
41263;SDS011;26998;48.714;9.414;2023-07-22T07:53:34;5.07;;;3.08;;
41263;SDS011;26998;48.714;9.414;2023-07-22T07:56:00;3.13;;;2.60;;
41263;SDS011;26998;48.714;9.414;2023-07-22T07:58:27;7.13;;;3.95;;
41263;SDS011;26998;48.714;9.414;2023-07-22T08:00:53;5.50;;;2.78;;
41263;SDS011;26998;48.714;9.414;2023-07-22T08:03:20;2.83;;;2.38;;
41263;SDS011;26998;48.714;9.414;2023-07-22T08:05:47;5.00;;;2.78;;
41263;SDS011;26998;48.714;9.414;2023-07-22T08:08:13;4.25;;;2.80;;
41263;SDS011;26998;48.714;9.414;2023-07-22T08:10:40;3.72;;;2.60;;
41263;SDS011;26998;48.714;9.414;2023-07-22T08:13:06;4.95;;;2.67;;
41263;SDS011;26998;48.714;9.414;2023-07-22T08:15:33;2.90;;;2.53;;
41263;SDS011;26998;48.714;9.414;2023-07-22T08:17:59;3.45;;;2.70;;
41263;SDS011;26998;48.714;9.414;2023-07-22T08:20:26;3.85;;;2.30;;
41263;SDS011;26998;48.714;9.414;2023-07-22T08:22:52;3.42;;;2.20;;
41263;SDS011;26998;48.714;9.414;2023-07-22T08:25:19;5.03;;;2.47;;
41263;SDS011;26998;48.714;9.414;2023-07-22T08:27:45;2.45;;;2.20;;
41263;SDS011;26998;48.714;9.414;2023-07-22T08:30:12;3.22;;;2.83;;
41263;SDS011;26998;48.714;9.414;2023-07-22T08:32:38;3.03;;;2.60;;
41263;SDS011;26998;48.714;9.414;2023-07-22T08:35:05;4.88;;;2.67;;
41263;SDS011;26998;48.714;9.414;2023-07-22T08:37:32;2.58;;;2.20;;
41263;SDS011;26998;48.714;9.414;2023-07-22T08:39:58;2.53;;;2.20;;
41263;SDS011;26998;48.714;9.414;2023-07-22T08:42:25;3.05;;;1.85;;
41263;SDS011;26998;48.714;9.414;2023-07-22T08:44:53;2.22;;;2.00;;
41263;SDS011;26998;48.714;9.414;2023-07-22T08:47:23;2.95;;;2.35;;
41263;SDS011;26998;48.714;9.414;2023-07-22T08:49:52;4.18;;;2.60;;
41263;SDS011;26998;48.714;9.414;2023-07-22T08:52:23;3.33;;;1.85;;
41263;SDS011;26998;48.714;9.414;2023-07-22T08:54:49;2.65;;;2.30;;
41263;SDS011;26998;48.714;9.414;2023-07-22T08:57:17;4.88;;;2.63;;
41263;SDS011;26998;48.714;9.414;2023-07-22T08:59:43;3.97;;;1.98;;
41263;SDS011;26998;48.714;9.414;2023-07-22T09:02:12;4.53;;;1.75;;
41263;SDS011;26998;48.714;9.414;2023-07-22T09:04:39;3.97;;;1.65;;
41263;SDS011;26998;48.714;9.414;2023-07-22T09:07:06;2.08;;;1.85;;
41263;SDS011;26998;48.714;9.414;2023-07-22T09:09:34;2.85;;;1.73;;
41263;SDS011;26998;48.714;9.414;2023-07-22T09:12:01;3.42;;;1.85;;
41263;SDS011;26998;48.714;9.414;2023-07-22T09:14:27;2.22;;;1.88;;
41263;SDS011;26998;48.714;9.414;2023-07-22T09:17:03;3.70;;;2.10;;
41263;SDS011;26998;48.714;9.414;2023-07-22T09:19:30;1.70;;;1.60;;
41263;SDS011;26998;48.714;9.414;2023-07-22T09:21:56;9.70;;;1.70;;
41263;SDS011;26998;48.714;9.414;2023-07-22T09:24:23;2.72;;;1.70;;
41263;SDS011;26998;48.714;9.414;2023-07-22T09:26:51;3.05;;;1.60;;
41263;SDS011;26998;48.714;9.414;2023-07-22T09:29:18;3.08;;;1.80;;
41263;SDS011;26998;48.714;9.414;2023-07-22T09:31:48;3.00;;;1.77;;
41263;SDS011;26998;48.714;9.414;2023-07-22T09:34:16;6.05;;;1.90;;
41263;SDS011;26998;48.714;9.414;2023-07-22T09:36:49;3.10;;;1.70;;
41263;SDS011;26998;48.714;9.414;2023-07-22T09:39:17;2.25;;;1.55;;
41263;SDS011;26998;48.714;9.414;2023-07-22T09:41:44;2.10;;;1.88;;
41263;SDS011;26998;48.714;9.414;2023-07-22T09:44:10;2.00;;;1.45;;
41263;SDS011;26998;48.714;9.414;2023-07-22T09:46:37;2.17;;;1.77;;
41263;SDS011;26998;48.714;9.414;2023-07-22T09:49:05;3.45;;;1.60;;
41263;SDS011;26998;48.714;9.414;2023-07-22T09:51:36;4.28;;;1.63;;
41263;SDS011;26998;48.714;9.414;2023-07-22T09:54:17;4.90;;;1.70;;
41263;SDS011;26998;48.714;9.414;2023-07-22T09:56:46;2.33;;;1.63;;
41263;SDS011;26998;48.714;9.414;2023-07-22T09:59:17;2.53;;;1.60;;
41263;SDS011;26998;48.714;9.414;2023-07-22T10:01:44;5.00;;;1.70;;
41263;SDS011;26998;48.714;9.414;2023-07-22T10:04:12;2.97;;;1.55;;
41263;SDS011;26998;48.714;9.414;2023-07-22T10:06:42;3.17;;;1.75;;
41263;SDS011;26998;48.714;9.414;2023-07-22T10:09:10;2.72;;;1.90;;
41263;SDS011;26998;48.714;9.414;2023-07-22T10:11:37;2.42;;;1.90;;
41263;SDS011;26998;48.714;9.414;2023-07-22T10:14:05;2.72;;;1.90;;
41263;SDS011;26998;48.714;9.414;2023-07-22T10:16:31;2.38;;;1.77;;
41263;SDS011;26998;48.714;9.414;2023-07-22T10:18:59;2.90;;;1.90;;
41263;SDS011;26998;48.714;9.414;2023-07-22T10:21:26;1.95;;;1.80;;
41263;SDS011;26998;48.714;9.414;2023-07-22T10:23:56;3.53;;;1.73;;
41263;SDS011;26998;48.714;9.414;2023-07-22T10:26:24;1.88;;;1.60;;
41263;SDS011;26998;48.714;9.414;2023-07-22T10:29:11;1.63;;;1.50;;
41263;SDS011;26998;48.714;9.414;2023-07-22T10:31:39;1.77;;;1.50;;
41263;SDS011;26998;48.714;9.414;2023-07-22T10:34:06;4.50;;;2.10;;
41263;SDS011;26998;48.714;9.414;2023-07-22T10:36:32;3.05;;;1.85;;
41263;SDS011;26998;48.714;9.414;2023-07-22T10:38:59;1.50;;;1.40;;
41263;SDS011;26998;48.714;9.414;2023-07-22T10:41:29;2.00;;;1.77;;
41263;SDS011;26998;48.714;9.414;2023-07-22T10:43:57;3.45;;;1.63;;
41263;SDS011;26998;48.714;9.414;2023-07-22T10:46:35;3.53;;;1.60;;
41263;SDS011;26998;48.714;9.414;2023-07-22T10:49:12;2.58;;;1.90;;
41263;SDS011;26998;48.714;9.414;2023-07-22T10:51:41;2.65;;;1.67;;
41263;SDS011;26998;48.714;9.414;2023-07-22T10:54:15;2.53;;;1.60;;
41263;SDS011;26998;48.714;9.414;2023-07-22T10:59:49;1.88;;;1.70;;
41263;SDS011;26998;48.714;9.414;2023-07-22T11:02:26;2.83;;;1.52;;
41263;SDS011;26998;48.714;9.414;2023-07-22T11:04:57;2.95;;;1.42;;
41263;SDS011;26998;48.714;9.414;2023-07-22T11:07:43;1.77;;;1.40;;
41263;SDS011;26998;48.714;9.414;2023-07-22T11:10:12;2.47;;;1.70;;
41263;SDS011;26998;48.714;9.414;2023-07-22T11:12:41;2.45;;;1.92;;
41263;SDS011;26998;48.714;9.414;2023-07-22T11:15:09;1.50;;;1.40;;
41263;SDS011;26998;48.714;9.414;2023-07-22T11:17:36;2.97;;;1.98;;
41263;SDS011;26998;48.714;9.414;2023-07-22T11:20:04;4.05;;;1.55;;
41263;SDS011;26998;48.714;9.414;2023-07-22T11:22:31;2.90;;;1.80;;
41263;SDS011;26998;48.714;9.414;2023-07-22T11:24:57;4.57;;;4.15;;
41263;SDS011;26998;48.714;9.414;2023-07-22T11:27:24;1.92;;;1.73;;
41263;SDS011;26998;48.714;9.414;2023-07-22T11:29:51;1.92;;;1.73;;
41263;SDS011;26998;48.714;9.414;2023-07-22T11:32:18;2.05;;;1.77;;
41263;SDS011;26998;48.714;9.414;2023-07-22T11:34:45;6.95;;;2.13;;
41263;SDS011;26998;48.714;9.414;2023-07-22T11:37:12;1.88;;;1.60;;
41263;SDS011;26998;48.714;9.414;2023-07-22T11:39:40;2.78;;;2.00;;
41263;SDS011;26998;48.714;9.414;2023-07-22T11:42:07;2.72;;;1.60;;
41263;SDS011;26998;48.714;9.414;2023-07-22T11:44:34;2.13;;;1.80;;
41263;SDS011;26998;48.714;9.414;2023-07-22T11:47:04;2.40;;;1.50;;
41263;SDS011;26998;48.714;9.414;2023-07-22T11:49:38;6.00;;;1.67;;
41263;SDS011;26998;48.714;9.414;2023-07-22T11:52:07;2.40;;;2.20;;
41263;SDS011;26998;48.714;9.414;2023-07-22T11:54:41;1.90;;;1.80;;
41263;SDS011;26998;48.714;9.414;2023-07-22T11:59:53;2.78;;;2.00;;
41263;SDS011;26998;48.714;9.414;2023-07-22T12:02:22;1.73;;;1.60;;
41263;SDS011;26998;48.714;9.414;2023-07-22T12:04:57;1.92;;;1.73;;
41263;SDS011;26998;48.714;9.414;2023-07-22T12:07:34;2.00;;;1.73;;
41263;SDS011;26998;48.714;9.414;2023-07-22T12:10:08;2.33;;;2.03;;
41263;SDS011;26998;48.714;9.414;2023-07-22T12:12:38;2.42;;;1.92;;
41263;SDS011;26998;48.714;9.414;2023-07-22T12:15:13;4.60;;;2.10;;
41263;SDS011;26998;48.714;9.414;2023-07-22T12:17:53;2.55;;;1.98;;
41263;SDS011;26998;48.714;9.414;2023-07-22T12:20:25;2.35;;;2.05;;
41263;SDS011;26998;48.714;9.414;2023-07-22T12:22:53;3.20;;;1.80;;
41263;SDS011;26998;48.714;9.414;2023-07-22T12:25:20;2.03;;;1.90;;
41263;SDS011;26998;48.714;9.414;2023-07-22T12:27:47;3.35;;;2.00;;
41263;SDS011;26998;48.714;9.414;2023-07-22T12:30:14;3.47;;;2.08;;
41263;SDS011;26998;48.714;9.414;2023-07-22T12:32:45;2.25;;;2.05;;
41263;SDS011;26998;48.714;9.414;2023-07-22T12:35:12;3.35;;;2.08;;
41263;SDS011;26998;48.714;9.414;2023-07-22T12:37:39;2.95;;;2.15;;
41263;SDS011;26998;48.714;9.414;2023-07-22T12:40:06;2.60;;;1.90;;
41263;SDS011;26998;48.714;9.414;2023-07-22T12:42:32;5.10;;;2.17;;
41263;SDS011;26998;48.714;9.414;2023-07-22T12:44:59;2.47;;;2.17;;
41263;SDS011;26998;48.714;9.414;2023-07-22T12:47:26;2.15;;;1.90;;
41263;SDS011;26998;48.714;9.414;2023-07-22T12:49:53;2.50;;;2.30;;
41263;SDS011;26998;48.714;9.414;2023-07-22T12:52:19;4.32;;;2.25;;
41263;SDS011;26998;48.714;9.414;2023-07-22T12:54:46;4.13;;;2.45;;
41263;SDS011;26998;48.714;9.414;2023-07-22T12:57:13;2.78;;;2.00;;
41263;SDS011;26998;48.714;9.414;2023-07-22T12:59:39;2.85;;;1.70;;
41263;SDS011;26998;48.714;9.414;2023-07-22T13:02:06;1.88;;;1.52;;
41263;SDS011;26998;48.714;9.414;2023-07-22T13:04:32;2.50;;;2.30;;
41263;SDS011;26998;48.714;9.414;2023-07-22T13:06:59;2.63;;;1.95;;
41263;SDS011;26998;48.714;9.414;2023-07-22T13:09:26;2.05;;;1.83;;
41263;SDS011;26998;48.714;9.414;2023-07-22T13:11:52;5.30;;;1.80;;
41263;SDS011;26998;48.714;9.414;2023-07-22T13:14:19;3.20;;;2.35;;
41263;SDS011;26998;48.714;9.414;2023-07-22T13:16:46;2.05;;;1.83;;
41263;SDS011;26998;48.714;9.414;2023-07-22T13:19:13;2.92;;;2.30;;
41263;SDS011;26998;48.714;9.414;2023-07-22T13:21:39;6.25;;;1.80;;
41263;SDS011;26998;48.714;9.414;2023-07-22T13:24:06;2.00;;;1.50;;
41263;SDS011;26998;48.714;9.414;2023-07-22T13:26:33;3.65;;;2.10;;
41263;SDS011;26998;48.714;9.414;2023-07-22T13:29:04;6.18;;;2.22;;
41263;SDS011;26998;48.714;9.414;2023-07-22T13:31:31;2.03;;;1.80;;
41263;SDS011;26998;48.714;9.414;2023-07-22T13:33:57;2.72;;;2.13;;
41263;SDS011;26998;48.714;9.414;2023-07-22T13:36:23;4.03;;;2.40;;
41263;SDS011;26998;48.714;9.414;2023-07-22T13:38:50;1.98;;;1.77;;
41263;SDS011;26998;48.714;9.414;2023-07-22T13:41:17;7.00;;;2.13;;
41263;SDS011;26998;48.714;9.414;2023-07-22T13:43:45;2.10;;;1.77;;
41263;SDS011;26998;48.714;9.414;2023-07-22T13:46:11;2.25;;;2.05;;
41263;SDS011;26998;48.714;9.414;2023-07-22T13:48:38;3.13;;;2.25;;
41263;SDS011;26998;48.714;9.414;2023-07-22T13:51:04;2.85;;;2.40;;
41263;SDS011;26998;48.714;9.414;2023-07-22T13:53:31;4.07;;;2.47;;
41263;SDS011;26998;48.714;9.414;2023-07-22T13:55:57;4.53;;;2.60;;
41263;SDS011;26998;48.714;9.414;2023-07-22T13:58:24;2.97;;;2.60;;
41263;SDS011;26998;48.714;9.414;2023-07-22T14:00:51;5.32;;;2.95;;
41263;SDS011;26998;48.714;9.414;2023-07-22T14:03:17;2.92;;;2.58;;
41263;SDS011;26998;48.714;9.414;2023-07-22T14:05:44;2.85;;;2.53;;
41263;SDS011;26998;48.714;9.414;2023-07-22T14:08:10;2.97;;;2.53;;
41263;SDS011;26998;48.714;9.414;2023-07-22T14:10:37;3.08;;;2.55;;
41263;SDS011;26998;48.714;9.414;2023-07-22T14:13:04;3.65;;;2.78;;
41263;SDS011;26998;48.714;9.414;2023-07-22T14:15:30;3.13;;;2.42;;
41263;SDS011;26998;48.714;9.414;2023-07-22T14:17:57;3.30;;;2.35;;
41263;SDS011;26998;48.714;9.414;2023-07-22T14:20:24;3.78;;;3.08;;
41263;SDS011;26998;48.714;9.414;2023-07-22T14:22:51;4.43;;;2.80;;
41263;SDS011;26998;48.714;9.414;2023-07-22T14:25:17;3.28;;;2.60;;
41263;SDS011;26998;48.714;9.414;2023-07-22T14:27:44;3.53;;;2.95;;
41263;SDS011;26998;48.714;9.414;2023-07-22T14:30:11;5.38;;;2.83;;
41263;SDS011;26998;48.714;9.414;2023-07-22T14:32:37;4.35;;;2.90;;
41263;SDS011;26998;48.714;9.414;2023-07-22T14:35:04;2.92;;;2.30;;
41263;SDS011;26998;48.714;9.414;2023-07-22T14:37:31;6.30;;;3.05;;
41263;SDS011;26998;48.714;9.414;2023-07-22T14:39:58;2.95;;;2.42;;
41263;SDS011;26998;48.714;9.414;2023-07-22T14:42:25;2.47;;;2.25;;
41263;SDS011;26998;48.714;9.414;2023-07-22T14:44:51;3.75;;;2.60;;
41263;SDS011;26998;48.714;9.414;2023-07-22T14:47:18;3.30;;;2.60;;
41263;SDS011;26998;48.714;9.414;2023-07-22T14:49:45;4.22;;;3.00;;
41263;SDS011;26998;48.714;9.414;2023-07-22T14:52:12;4.07;;;3.40;;
41263;SDS011;26998;48.714;9.414;2023-07-22T14:54:38;5.13;;;2.72;;
41263;SDS011;26998;48.714;9.414;2023-07-22T14:57:06;5.93;;;2.67;;